sensor_id;sensor_type;location;lat;lon;timestamp;temperature;humidity
30889;DHT22;51092;50.874;7.024;2023-04-24T00:00:16;12.20;85.90
30889;DHT22;51092;50.874;7.024;2023-04-24T00:01:20;12.20;86.50
30889;DHT22;51092;50.874;7.024;2023-04-24T00:02:22;12.20;86.70
30889;DHT22;51092;50.874;7.024;2023-04-24T00:03:25;12.20;86.70
30889;DHT22;51092;50.874;7.024;2023-04-24T00:04:27;12.20;86.50
30889;DHT22;51092;50.874;7.024;2023-04-24T00:05:29;12.20;86.50
30889;DHT22;51092;50.874;7.024;2023-04-24T00:06:30;12.20;86.40
30889;DHT22;51092;50.874;7.024;2023-04-24T00:07:35;12.20;86.40
30889;DHT22;51092;50.874;7.024;2023-04-24T00:08:36;12.20;86.70
30889;DHT22;51092;50.874;7.024;2023-04-24T00:09:39;12.20;86.50
30889;DHT22;51092;50.874;7.024;2023-04-24T00:10:41;12.30;86.40
30889;DHT22;51092;50.874;7.024;2023-04-24T00:11:43;12.30;86.30
30889;DHT22;51092;50.874;7.024;2023-04-24T00:12:45;12.30;86.60
30889;DHT22;51092;50.874;7.024;2023-04-24T00:13:47;12.30;86.30
30889;DHT22;51092;50.874;7.024;2023-04-24T00:14:49;12.40;86.20
30889;DHT22;51092;50.874;7.024;2023-04-24T00:15:51;12.40;86.00
30889;DHT22;51092;50.874;7.024;2023-04-24T00:16:54;12.40;86.10
30889;DHT22;51092;50.874;7.024;2023-04-24T00:17:56;12.30;86.20
30889;DHT22;51092;50.874;7.024;2023-04-24T00:18:58;12.30;86.10
30889;DHT22;51092;50.874;7.024;2023-04-24T00:20:02;12.40;85.90
30889;DHT22;51092;50.874;7.024;2023-04-24T00:21:05;12.40;86.20
30889;DHT22;51092;50.874;7.024;2023-04-24T00:22:08;12.30;86.20
30889;DHT22;51092;50.874;7.024;2023-04-24T00:23:09;12.30;86.40
30889;DHT22;51092;50.874;7.024;2023-04-24T00:24:12;12.30;86.50
30889;DHT22;51092;50.874;7.024;2023-04-24T00:25:13;12.30;86.50
30889;DHT22;51092;50.874;7.024;2023-04-24T00:26:16;12.30;86.50
30889;DHT22;51092;50.874;7.024;2023-04-24T00:27:17;12.30;86.80
30889;DHT22;51092;50.874;7.024;2023-04-24T00:28:20;12.30;86.30
30889;DHT22;51092;50.874;7.024;2023-04-24T00:29:21;12.30;86.40
30889;DHT22;51092;50.874;7.024;2023-04-24T00:30:23;12.30;86.70
30889;DHT22;51092;50.874;7.024;2023-04-24T00:31:25;12.20;87.10
30889;DHT22;51092;50.874;7.024;2023-04-24T00:32:29;12.30;87.10
30889;DHT22;51092;50.874;7.024;2023-04-24T00:33:31;12.20;87.10
30889;DHT22;51092;50.874;7.024;2023-04-24T00:34:33;12.30;87.20
30889;DHT22;51092;50.874;7.024;2023-04-24T00:35:34;12.30;86.70
30889;DHT22;51092;50.874;7.024;2023-04-24T00:36:37;12.30;86.60
30889;DHT22;51092;50.874;7.024;2023-04-24T00:37:38;12.30;86.70
30889;DHT22;51092;50.874;7.024;2023-04-24T00:38:41;12.30;86.70
30889;DHT22;51092;50.874;7.024;2023-04-24T00:39:42;12.30;86.80
30889;DHT22;51092;50.874;7.024;2023-04-24T00:40:45;12.30;87.00
30889;DHT22;51092;50.874;7.024;2023-04-24T00:41:47;12.20;87.50
30889;DHT22;51092;50.874;7.024;2023-04-24T00:42:50;12.20;87.80
30889;DHT22;51092;50.874;7.024;2023-04-24T00:43:52;12.20;88.10
30889;DHT22;51092;50.874;7.024;2023-04-24T00:44:54;12.20;88.10
30889;DHT22;51092;50.874;7.024;2023-04-24T00:45:58;12.20;88.10
30889;DHT22;51092;50.874;7.024;2023-04-24T00:47:00;12.20;88.40
30889;DHT22;51092;50.874;7.024;2023-04-24T00:48:04;12.20;88.10
30889;DHT22;51092;50.874;7.024;2023-04-24T00:49:06;12.30;87.90
30889;DHT22;51092;50.874;7.024;2023-04-24T00:50:09;12.30;87.90
30889;DHT22;51092;50.874;7.024;2023-04-24T00:51:11;12.30;87.70
30889;DHT22;51092;50.874;7.024;2023-04-24T00:52:13;12.30;87.70
30889;DHT22;51092;50.874;7.024;2023-04-24T00:53:18;12.30;87.90
30889;DHT22;51092;50.874;7.024;2023-04-24T00:54:21;12.30;88.00
30889;DHT22;51092;50.874;7.024;2023-04-24T00:55:24;12.20;88.10
30889;DHT22;51092;50.874;7.024;2023-04-24T00:56:27;12.20;87.90
30889;DHT22;51092;50.874;7.024;2023-04-24T00:57:28;12.30;87.70
30889;DHT22;51092;50.874;7.024;2023-04-24T00:58:31;12.30;87.60
30889;DHT22;51092;50.874;7.024;2023-04-24T00:59:33;12.30;87.60
30889;DHT22;51092;50.874;7.024;2023-04-24T01:00:37;12.30;87.40
30889;DHT22;51092;50.874;7.024;2023-04-24T01:01:39;12.30;87.50
30889;DHT22;51092;50.874;7.024;2023-04-24T01:02:44;12.40;87.50
30889;DHT22;51092;50.874;7.024;2023-04-24T01:03:49;12.40;87.50
30889;DHT22;51092;50.874;7.024;2023-04-24T01:04:52;12.50;86.50
30889;DHT22;51092;50.874;7.024;2023-04-24T01:05:54;12.40;86.40
30889;DHT22;51092;50.874;7.024;2023-04-24T01:06:57;12.50;86.20
30889;DHT22;51092;50.874;7.024;2023-04-24T01:07:59;12.40;86.30
30889;DHT22;51092;50.874;7.024;2023-04-24T01:09:02;12.40;86.30
30889;DHT22;51092;50.874;7.024;2023-04-24T01:10:03;12.40;86.40
30889;DHT22;51092;50.874;7.024;2023-04-24T01:11:06;12.30;86.20
30889;DHT22;51092;50.874;7.024;2023-04-24T01:12:07;12.20;87.20
30889;DHT22;51092;50.874;7.024;2023-04-24T01:13:09;12.10;87.90
30889;DHT22;51092;50.874;7.024;2023-04-24T01:14:11;12.00;88.60
30889;DHT22;51092;50.874;7.024;2023-04-24T01:15:14;12.00;88.90
30889;DHT22;51092;50.874;7.024;2023-04-24T01:16:15;11.90;89.10
30889;DHT22;51092;50.874;7.024;2023-04-24T01:17:18;11.90;89.60
30889;DHT22;51092;50.874;7.024;2023-04-24T01:18:20;11.90;89.70
30889;DHT22;51092;50.874;7.024;2023-04-24T01:19:24;11.90;88.80
30889;DHT22;51092;50.874;7.024;2023-04-24T01:20:26;11.80;89.40
30889;DHT22;51092;50.874;7.024;2023-04-24T01:21:29;11.70;89.30
30889;DHT22;51092;50.874;7.024;2023-04-24T01:22:33;11.70;88.80
30889;DHT22;51092;50.874;7.024;2023-04-24T01:23:35;11.70;88.90
30889;DHT22;51092;50.874;7.024;2023-04-24T01:24:37;11.70;88.40
30889;DHT22;51092;50.874;7.024;2023-04-24T01:25:40;11.60;88.60
30889;DHT22;51092;50.874;7.024;2023-04-24T01:26:41;11.60;89.40
30889;DHT22;51092;50.874;7.024;2023-04-24T01:27:44;11.70;89.40
30889;DHT22;51092;50.874;7.024;2023-04-24T01:28:46;11.70;89.10
30889;DHT22;51092;50.874;7.024;2023-04-24T01:29:48;11.80;88.40
30889;DHT22;51092;50.874;7.024;2023-04-24T01:30:50;11.80;88.10
30889;DHT22;51092;50.874;7.024;2023-04-24T01:31:53;11.80;86.70
30889;DHT22;51092;50.874;7.024;2023-04-24T01:32:56;11.80;86.10
30889;DHT22;51092;50.874;7.024;2023-04-24T01:33:59;11.80;86.10
30889;DHT22;51092;50.874;7.024;2023-04-24T01:35:01;11.80;85.80
30889;DHT22;51092;50.874;7.024;2023-04-24T01:36:04;11.80;85.20
30889;DHT22;51092;50.874;7.024;2023-04-24T01:37:06;11.80;85.10
30889;DHT22;51092;50.874;7.024;2023-04-24T01:38:10;11.80;84.70
30889;DHT22;51092;50.874;7.024;2023-04-24T01:39:12;11.80;84.50
30889;DHT22;51092;50.874;7.024;2023-04-24T01:40:14;11.80;84.60
30889;DHT22;51092;50.874;7.024;2023-04-24T01:41:16;11.80;84.40
30889;DHT22;51092;50.874;7.024;2023-04-24T01:42:18;11.80;83.90
30889;DHT22;51092;50.874;7.024;2023-04-24T01:43:20;11.80;83.10
30889;DHT22;51092;50.874;7.024;2023-04-24T01:44:23;11.80;82.10
30889;DHT22;51092;50.874;7.024;2023-04-24T01:45:25;11.80;81.60
30889;DHT22;51092;50.874;7.024;2023-04-24T01:46:27;11.70;81.50
30889;DHT22;51092;50.874;7.024;2023-04-24T01:47:30;11.70;81.20
30889;DHT22;51092;50.874;7.024;2023-04-24T01:48:33;11.70;80.40
30889;DHT22;51092;50.874;7.024;2023-04-24T01:49:35;11.60;79.90
30889;DHT22;51092;50.874;7.024;2023-04-24T01:50:39;11.60;80.10
30889;DHT22;51092;50.874;7.024;2023-04-24T01:51:41;11.50;80.40
30889;DHT22;51092;50.874;7.024;2023-04-24T01:52:43;11.50;80.40
30889;DHT22;51092;50.874;7.024;2023-04-24T01:53:46;11.50;80.50
30889;DHT22;51092;50.874;7.024;2023-04-24T01:54:49;11.50;80.80
30889;DHT22;51092;50.874;7.024;2023-04-24T01:55:50;11.40;80.80
30889;DHT22;51092;50.874;7.024;2023-04-24T01:56:53;11.40;81.00
30889;DHT22;51092;50.874;7.024;2023-04-24T01:57:56;11.40;81.10
30889;DHT22;51092;50.874;7.024;2023-04-24T01:58:59;11.40;81.20
30889;DHT22;51092;50.874;7.024;2023-04-24T02:00:02;11.40;81.40
30889;DHT22;51092;50.874;7.024;2023-04-24T02:01:08;11.30;81.60
30889;DHT22;51092;50.874;7.024;2023-04-24T02:02:09;11.30;81.40
30889;DHT22;51092;50.874;7.024;2023-04-24T02:03:11;11.20;81.60
30889;DHT22;51092;50.874;7.024;2023-04-24T02:04:13;11.30;81.60
30889;DHT22;51092;50.874;7.024;2023-04-24T02:05:16;11.20;82.20
30889;DHT22;51092;50.874;7.024;2023-04-24T02:06:17;11.20;82.10
30889;DHT22;51092;50.874;7.024;2023-04-24T02:07:20;11.20;82.00
30889;DHT22;51092;50.874;7.024;2023-04-24T02:08:22;11.10;82.30
30889;DHT22;51092;50.874;7.024;2023-04-24T02:09:26;11.10;82.50
30889;DHT22;51092;50.874;7.024;2023-04-24T02:10:27;11.10;82.50
30889;DHT22;51092;50.874;7.024;2023-04-24T02:11:30;11.10;82.50
30889;DHT22;51092;50.874;7.024;2023-04-24T02:12:32;11.10;82.50
30889;DHT22;51092;50.874;7.024;2023-04-24T02:13:34;11.10;82.60
30889;DHT22;51092;50.874;7.024;2023-04-24T02:14:36;11.00;82.90
30889;DHT22;51092;50.874;7.024;2023-04-24T02:15:38;11.00;82.90
30889;DHT22;51092;50.874;7.024;2023-04-24T02:16:40;11.00;83.00
30889;DHT22;51092;50.874;7.024;2023-04-24T02:17:42;10.90;83.40
30889;DHT22;51092;50.874;7.024;2023-04-24T02:18:44;10.90;83.50
30889;DHT22;51092;50.874;7.024;2023-04-24T02:19:46;10.90;83.70
30889;DHT22;51092;50.874;7.024;2023-04-24T02:20:47;10.90;83.80
30889;DHT22;51092;50.874;7.024;2023-04-24T02:21:50;10.80;84.20
30889;DHT22;51092;50.874;7.024;2023-04-24T02:22:51;10.80;84.20
30889;DHT22;51092;50.874;7.024;2023-04-24T02:23:54;10.80;84.40
30889;DHT22;51092;50.874;7.024;2023-04-24T02:24:57;10.70;84.90
30889;DHT22;51092;50.874;7.024;2023-04-24T02:25:59;10.70;84.90
30889;DHT22;51092;50.874;7.024;2023-04-24T02:27:01;10.60;85.30
30889;DHT22;51092;50.874;7.024;2023-04-24T02:28:04;10.60;85.50
30889;DHT22;51092;50.874;7.024;2023-04-24T02:29:05;10.60;85.40
30889;DHT22;51092;50.874;7.024;2023-04-24T02:30:08;10.50;85.80
30889;DHT22;51092;50.874;7.024;2023-04-24T02:31:10;10.50;86.00
30889;DHT22;51092;50.874;7.024;2023-04-24T02:32:13;10.40;86.40
30889;DHT22;51092;50.874;7.024;2023-04-24T02:33:16;10.40;86.50
30889;DHT22;51092;50.874;7.024;2023-04-24T02:34:19;10.30;86.80
30889;DHT22;51092;50.874;7.024;2023-04-24T02:35:20;10.30;87.10
30889;DHT22;51092;50.874;7.024;2023-04-24T02:36:22;10.20;87.40
30889;DHT22;51092;50.874;7.024;2023-04-24T02:37:24;10.20;87.50
30889;DHT22;51092;50.874;7.024;2023-04-24T02:38:26;10.20;87.70
30889;DHT22;51092;50.874;7.024;2023-04-24T02:39:28;10.20;87.50
30889;DHT22;51092;50.874;7.024;2023-04-24T02:40:32;10.10;88.00
30889;DHT22;51092;50.874;7.024;2023-04-24T02:41:33;10.10;88.30
30889;DHT22;51092;50.874;7.024;2023-04-24T02:42:36;10.10;88.20
30889;DHT22;51092;50.874;7.024;2023-04-24T02:43:38;10.10;88.50
30889;DHT22;51092;50.874;7.024;2023-04-24T02:44:39;10.00;88.70
30889;DHT22;51092;50.874;7.024;2023-04-24T02:45:42;10.10;88.50
30889;DHT22;51092;50.874;7.024;2023-04-24T02:46:43;10.10;88.50
30889;DHT22;51092;50.874;7.024;2023-04-24T02:47:46;10.10;88.60
30889;DHT22;51092;50.874;7.024;2023-04-24T02:48:47;10.00;88.70
30889;DHT22;51092;50.874;7.024;2023-04-24T02:49:50;10.00;88.60
30889;DHT22;51092;50.874;7.024;2023-04-24T02:50:51;10.00;88.70
30889;DHT22;51092;50.874;7.024;2023-04-24T02:51:54;10.00;88.80
30889;DHT22;51092;50.874;7.024;2023-04-24T02:52:55;10.00;88.90
30889;DHT22;51092;50.874;7.024;2023-04-24T02:53:58;10.10;88.60
30889;DHT22;51092;50.874;7.024;2023-04-24T02:54:59;10.10;88.70
30889;DHT22;51092;50.874;7.024;2023-04-24T02:56:03;10.10;88.60
30889;DHT22;51092;50.874;7.024;2023-04-24T02:57:04;10.20;88.20
30889;DHT22;51092;50.874;7.024;2023-04-24T02:58:07;10.20;87.80
30889;DHT22;51092;50.874;7.024;2023-04-24T02:59:08;10.20;87.80
30889;DHT22;51092;50.874;7.024;2023-04-24T03:00:12;10.20;87.80
30889;DHT22;51092;50.874;7.024;2023-04-24T03:01:14;10.30;87.70
30889;DHT22;51092;50.874;7.024;2023-04-24T03:02:16;10.30;87.60
30889;DHT22;51092;50.874;7.024;2023-04-24T03:03:18;10.30;87.30
30889;DHT22;51092;50.874;7.024;2023-04-24T03:04:20;10.30;87.20
30889;DHT22;51092;50.874;7.024;2023-04-24T03:05:23;10.30;87.10
30889;DHT22;51092;50.874;7.024;2023-04-24T03:06:26;10.30;87.10
30889;DHT22;51092;50.874;7.024;2023-04-24T03:07:28;10.40;86.70
30889;DHT22;51092;50.874;7.024;2023-04-24T03:08:30;10.40;86.80
30889;DHT22;51092;50.874;7.024;2023-04-24T03:09:32;10.40;86.80
30889;DHT22;51092;50.874;7.024;2023-04-24T03:10:34;10.40;86.80
30889;DHT22;51092;50.874;7.024;2023-04-24T03:11:37;10.40;86.80
30889;DHT22;51092;50.874;7.024;2023-04-24T03:12:40;10.50;86.70
30889;DHT22;51092;50.874;7.024;2023-04-24T03:13:41;10.50;86.80
30889;DHT22;51092;50.874;7.024;2023-04-24T03:14:43;10.50;86.50
30889;DHT22;51092;50.874;7.024;2023-04-24T03:15:45;10.40;86.80
30889;DHT22;51092;50.874;7.024;2023-04-24T03:16:48;10.40;86.80
30889;DHT22;51092;50.874;7.024;2023-04-24T03:17:49;10.30;87.00
30889;DHT22;51092;50.874;7.024;2023-04-24T03:18:52;10.30;87.10
30889;DHT22;51092;50.874;7.024;2023-04-24T03:19:53;10.30;87.00
30889;DHT22;51092;50.874;7.024;2023-04-24T03:20:56;10.20;87.30
30889;DHT22;51092;50.874;7.024;2023-04-24T03:21:57;10.20;87.40
30889;DHT22;51092;50.874;7.024;2023-04-24T03:23:00;10.20;87.60
30889;DHT22;51092;50.874;7.024;2023-04-24T03:24:01;10.30;87.20
30889;DHT22;51092;50.874;7.024;2023-04-24T03:25:05;10.30;87.00
30889;DHT22;51092;50.874;7.024;2023-04-24T03:26:06;10.20;87.20
30889;DHT22;51092;50.874;7.024;2023-04-24T03:27:10;10.20;87.50
30889;DHT22;51092;50.874;7.024;2023-04-24T03:28:12;10.20;87.60
30889;DHT22;51092;50.874;7.024;2023-04-24T03:29:14;10.20;87.40
30889;DHT22;51092;50.874;7.024;2023-04-24T03:30:16;10.10;87.50
30889;DHT22;51092;50.874;7.024;2023-04-24T03:31:18;10.00;88.00
30889;DHT22;51092;50.874;7.024;2023-04-24T03:32:20;9.90;88.20
30889;DHT22;51092;50.874;7.024;2023-04-24T03:33:23;9.90;88.40
30889;DHT22;51092;50.874;7.024;2023-04-24T03:34:24;9.90;88.30
30889;DHT22;51092;50.874;7.024;2023-04-24T03:35:27;9.90;88.60
30889;DHT22;51092;50.874;7.024;2023-04-24T03:36:28;9.90;88.50
30889;DHT22;51092;50.874;7.024;2023-04-24T03:37:31;9.90;88.70
30889;DHT22;51092;50.874;7.024;2023-04-24T03:38:33;9.90;88.50
30889;DHT22;51092;50.874;7.024;2023-04-24T03:39:35;9.90;88.60
30889;DHT22;51092;50.874;7.024;2023-04-24T03:40:36;9.80;89.10
30889;DHT22;51092;50.874;7.024;2023-04-24T03:41:39;9.80;89.30
30889;DHT22;51092;50.874;7.024;2023-04-24T03:42:42;9.90;88.80
30889;DHT22;51092;50.874;7.024;2023-04-24T03:43:45;9.80;89.30
30889;DHT22;51092;50.874;7.024;2023-04-24T03:44:46;9.80;89.40
30889;DHT22;51092;50.874;7.024;2023-04-24T03:45:49;9.80;89.50
30889;DHT22;51092;50.874;7.024;2023-04-24T03:46:50;9.80;89.30
30889;DHT22;51092;50.874;7.024;2023-04-24T03:47:53;9.70;90.00
30889;DHT22;51092;50.874;7.024;2023-04-24T03:48:54;9.70;90.00
30889;DHT22;51092;50.874;7.024;2023-04-24T03:49:57;9.60;90.20
30889;DHT22;51092;50.874;7.024;2023-04-24T03:50:58;9.60;90.20
30889;DHT22;51092;50.874;7.024;2023-04-24T03:52:01;9.60;90.30
30889;DHT22;51092;50.874;7.024;2023-04-24T03:53:02;9.60;90.30
30889;DHT22;51092;50.874;7.024;2023-04-24T03:54:05;9.60;90.20
30889;DHT22;51092;50.874;7.024;2023-04-24T03:55:07;9.60;90.30
30889;DHT22;51092;50.874;7.024;2023-04-24T03:56:09;9.50;90.40
30889;DHT22;51092;50.874;7.024;2023-04-24T03:57:11;9.60;90.30
30889;DHT22;51092;50.874;7.024;2023-04-24T03:58:15;9.60;90.30
30889;DHT22;51092;50.874;7.024;2023-04-24T03:59:17;9.60;90.40
30889;DHT22;51092;50.874;7.024;2023-04-24T04:00:19;9.50;90.50
30889;DHT22;51092;50.874;7.024;2023-04-24T04:01:22;9.60;90.40
30889;DHT22;51092;50.874;7.024;2023-04-24T04:02:25;9.50;90.40
30889;DHT22;51092;50.874;7.024;2023-04-24T04:03:27;9.50;90.50
30889;DHT22;51092;50.874;7.024;2023-04-24T04:04:29;9.50;90.50
30889;DHT22;51092;50.874;7.024;2023-04-24T04:05:31;9.60;90.30
30889;DHT22;51092;50.874;7.024;2023-04-24T04:06:33;9.50;90.40
30889;DHT22;51092;50.874;7.024;2023-04-24T04:07:35;9.60;90.70
30889;DHT22;51092;50.874;7.024;2023-04-24T04:08:37;9.60;90.30
30889;DHT22;51092;50.874;7.024;2023-04-24T04:09:38;9.60;90.30
30889;DHT22;51092;50.874;7.024;2023-04-24T04:10:41;9.70;90.30
30889;DHT22;51092;50.874;7.024;2023-04-24T04:11:42;9.70;90.10
30889;DHT22;51092;50.874;7.024;2023-04-24T04:12:45;9.70;90.00
30889;DHT22;51092;50.874;7.024;2023-04-24T04:13:49;9.70;90.10
30889;DHT22;51092;50.874;7.024;2023-04-24T04:14:51;9.80;90.40
30889;DHT22;51092;50.874;7.024;2023-04-24T04:15:53;9.80;90.20
30889;DHT22;51092;50.874;7.024;2023-04-24T04:16:55;9.80;90.20
30889;DHT22;51092;50.874;7.024;2023-04-24T04:17:57;9.80;90.20
30889;DHT22;51092;50.874;7.024;2023-04-24T04:19:00;9.80;90.20
30889;DHT22;51092;50.874;7.024;2023-04-24T04:20:02;9.90;90.40
30889;DHT22;51092;50.874;7.024;2023-04-24T04:21:09;10.00;89.90
30889;DHT22;51092;50.874;7.024;2023-04-24T04:22:11;9.90;89.80
30889;DHT22;51092;50.874;7.024;2023-04-24T04:23:13;9.90;90.10
30889;DHT22;51092;50.874;7.024;2023-04-24T04:24:14;9.80;90.10
30889;DHT22;51092;50.874;7.024;2023-04-24T04:25:16;9.90;90.20
30889;DHT22;51092;50.874;7.024;2023-04-24T04:26:20;9.90;90.00
30889;DHT22;51092;50.874;7.024;2023-04-24T04:27:26;9.90;89.80
30889;DHT22;51092;50.874;7.024;2023-04-24T04:28:29;9.90;89.90
30889;DHT22;51092;50.874;7.024;2023-04-24T04:29:34;9.90;90.00
30889;DHT22;51092;50.874;7.024;2023-04-24T04:30:36;9.90;90.10
30889;DHT22;51092;50.874;7.024;2023-04-24T04:31:40;9.90;90.00
30889;DHT22;51092;50.874;7.024;2023-04-24T04:32:42;9.90;90.20
30889;DHT22;51092;50.874;7.024;2023-04-24T04:33:44;9.90;90.10
30889;DHT22;51092;50.874;7.024;2023-04-24T04:34:45;10.00;90.10
30889;DHT22;51092;50.874;7.024;2023-04-24T04:35:50;9.90;89.50
30889;DHT22;51092;50.874;7.024;2023-04-24T04:36:53;9.90;90.00
30889;DHT22;51092;50.874;7.024;2023-04-24T04:37:55;9.80;90.10
30889;DHT22;51092;50.874;7.024;2023-04-24T04:38:59;9.80;90.20
30889;DHT22;51092;50.874;7.024;2023-04-24T04:40:04;9.80;90.10
30889;DHT22;51092;50.874;7.024;2023-04-24T04:41:07;9.80;90.20
30889;DHT22;51092;50.874;7.024;2023-04-24T04:42:10;9.80;90.30
30889;DHT22;51092;50.874;7.024;2023-04-24T04:43:11;9.80;90.40
30889;DHT22;51092;50.874;7.024;2023-04-24T04:44:16;9.80;90.40
30889;DHT22;51092;50.874;7.024;2023-04-24T04:45:19;9.90;90.20
30889;DHT22;51092;50.874;7.024;2023-04-24T04:46:21;9.90;90.00
30889;DHT22;51092;50.874;7.024;2023-04-24T04:47:27;9.80;90.10
30889;DHT22;51092;50.874;7.024;2023-04-24T04:48:32;9.80;90.20
30889;DHT22;51092;50.874;7.024;2023-04-24T04:49:34;9.90;90.10
30889;DHT22;51092;50.874;7.024;2023-04-24T04:50:38;9.80;90.20
30889;DHT22;51092;50.874;7.024;2023-04-24T04:51:39;9.90;90.30
30889;DHT22;51092;50.874;7.024;2023-04-24T04:52:41;9.90;90.00
30889;DHT22;51092;50.874;7.024;2023-04-24T04:53:43;9.90;90.10
30889;DHT22;51092;50.874;7.024;2023-04-24T04:54:45;9.90;90.20
30889;DHT22;51092;50.874;7.024;2023-04-24T04:55:47;9.90;90.10
30889;DHT22;51092;50.874;7.024;2023-04-24T04:56:50;9.90;90.00
30889;DHT22;51092;50.874;7.024;2023-04-24T04:57:51;10.00;89.90
30889;DHT22;51092;50.874;7.024;2023-04-24T04:58:54;9.90;90.00
30889;DHT22;51092;50.874;7.024;2023-04-24T04:59:55;9.90;90.00
30889;DHT22;51092;50.874;7.024;2023-04-24T05:00:59;9.90;90.10
30889;DHT22;51092;50.874;7.024;2023-04-24T05:02:00;9.90;90.00
30889;DHT22;51092;50.874;7.024;2023-04-24T05:03:03;9.90;90.10
30889;DHT22;51092;50.874;7.024;2023-04-24T05:04:04;9.90;90.00
30889;DHT22;51092;50.874;7.024;2023-04-24T05:05:08;10.00;90.00
30889;DHT22;51092;50.874;7.024;2023-04-24T05:06:09;10.00;90.00
30889;DHT22;51092;50.874;7.024;2023-04-24T05:07:12;9.90;90.00
30889;DHT22;51092;50.874;7.024;2023-04-24T05:08:14;9.90;90.00
30889;DHT22;51092;50.874;7.024;2023-04-24T05:09:16;9.90;90.10
30889;DHT22;51092;50.874;7.024;2023-04-24T05:10:18;9.90;90.20
30889;DHT22;51092;50.874;7.024;2023-04-24T05:11:21;9.90;90.00
30889;DHT22;51092;50.874;7.024;2023-04-24T05:12:23;10.00;90.00
30889;DHT22;51092;50.874;7.024;2023-04-24T05:13:25;9.90;90.10
30889;DHT22;51092;50.874;7.024;2023-04-24T05:14:27;10.00;90.20
30889;DHT22;51092;50.874;7.024;2023-04-24T05:15:29;10.00;90.10
30889;DHT22;51092;50.874;7.024;2023-04-24T05:16:33;9.90;90.10
30889;DHT22;51092;50.874;7.024;2023-04-24T05:17:35;9.90;90.10
30889;DHT22;51092;50.874;7.024;2023-04-24T05:18:37;9.90;90.20
30889;DHT22;51092;50.874;7.024;2023-04-24T05:19:39;9.90;90.30
30889;DHT22;51092;50.874;7.024;2023-04-24T05:20:41;9.90;90.40
30889;DHT22;51092;50.874;7.024;2023-04-24T05:21:44;9.90;90.30
30889;DHT22;51092;50.874;7.024;2023-04-24T05:22:47;9.90;90.40
30889;DHT22;51092;50.874;7.024;2023-04-24T05:23:49;9.90;90.20
30889;DHT22;51092;50.874;7.024;2023-04-24T05:24:51;9.90;90.30
30889;DHT22;51092;50.874;7.024;2023-04-24T05:25:53;9.90;90.40
30889;DHT22;51092;50.874;7.024;2023-04-24T05:26:55;10.00;90.10
30889;DHT22;51092;50.874;7.024;2023-04-24T05:27:58;9.90;90.20
30889;DHT22;51092;50.874;7.024;2023-04-24T05:29:00;9.90;90.30
30889;DHT22;51092;50.874;7.024;2023-04-24T05:30:03;9.90;90.20
30889;DHT22;51092;50.874;7.024;2023-04-24T05:31:06;10.00;90.20
30889;DHT22;51092;50.874;7.024;2023-04-24T05:32:08;9.90;90.20
30889;DHT22;51092;50.874;7.024;2023-04-24T05:33:11;10.00;90.30
30889;DHT22;51092;50.874;7.024;2023-04-24T05:34:12;10.00;90.20
30889;DHT22;51092;50.874;7.024;2023-04-24T05:35:15;10.00;90.00
30889;DHT22;51092;50.874;7.024;2023-04-24T05:36:17;10.10;90.00
30889;DHT22;51092;50.874;7.024;2023-04-24T05:37:19;10.00;90.00
30889;DHT22;51092;50.874;7.024;2023-04-24T05:38:20;10.00;90.10
30889;DHT22;51092;50.874;7.024;2023-04-24T05:39:23;10.10;90.00
30889;DHT22;51092;50.874;7.024;2023-04-24T05:40:26;10.10;90.00
30889;DHT22;51092;50.874;7.024;2023-04-24T05:41:28;10.20;89.80
30889;DHT22;51092;50.874;7.024;2023-04-24T05:42:31;10.20;89.60
30889;DHT22;51092;50.874;7.024;2023-04-24T05:43:32;10.10;89.90
30889;DHT22;51092;50.874;7.024;2023-04-24T05:44:34;10.10;90.10
30889;DHT22;51092;50.874;7.024;2023-04-24T05:45:36;10.10;90.20
30889;DHT22;51092;50.874;7.024;2023-04-24T05:46:38;10.20;90.00
30889;DHT22;51092;50.874;7.024;2023-04-24T05:47:41;10.20;89.80
30889;DHT22;51092;50.874;7.024;2023-04-24T05:48:45;10.10;90.10
30889;DHT22;51092;50.874;7.024;2023-04-24T05:49:46;10.10;90.00
30889;DHT22;51092;50.874;7.024;2023-04-24T05:50:49;10.00;90.10
30889;DHT22;51092;50.874;7.024;2023-04-24T05:51:50;10.00;90.20
30889;DHT22;51092;50.874;7.024;2023-04-24T05:52:53;10.10;90.20
30889;DHT22;51092;50.874;7.024;2023-04-24T05:53:54;10.10;90.00
30889;DHT22;51092;50.874;7.024;2023-04-24T05:54:57;10.10;89.80
30889;DHT22;51092;50.874;7.024;2023-04-24T05:55:58;10.10;89.60
30889;DHT22;51092;50.874;7.024;2023-04-24T05:57:01;10.00;89.70
30889;DHT22;51092;50.874;7.024;2023-04-24T05:58:05;10.10;89.90
30889;DHT22;51092;50.874;7.024;2023-04-24T05:59:08;10.10;89.70
30889;DHT22;51092;50.874;7.024;2023-04-24T06:00:10;10.10;89.80
30889;DHT22;51092;50.874;7.024;2023-04-24T06:01:14;10.10;89.80
30889;DHT22;51092;50.874;7.024;2023-04-24T06:02:15;10.10;89.70
30889;DHT22;51092;50.874;7.024;2023-04-24T06:03:19;10.20;89.50
30889;DHT22;51092;50.874;7.024;2023-04-24T06:04:21;10.10;89.90
30889;DHT22;51092;50.874;7.024;2023-04-24T06:05:23;10.10;89.70
30889;DHT22;51092;50.874;7.024;2023-04-24T06:06:25;10.10;89.80
30889;DHT22;51092;50.874;7.024;2023-04-24T06:07:28;10.20;89.70
30889;DHT22;51092;50.874;7.024;2023-04-24T06:08:30;10.10;89.90
30889;DHT22;51092;50.874;7.024;2023-04-24T06:09:32;10.10;90.10
30889;DHT22;51092;50.874;7.024;2023-04-24T06:10:34;10.10;90.00
30889;DHT22;51092;50.874;7.024;2023-04-24T06:11:36;10.10;90.20
30889;DHT22;51092;50.874;7.024;2023-04-24T06:12:38;10.00;90.30
30889;DHT22;51092;50.874;7.024;2023-04-24T06:13:40;10.10;90.30
30889;DHT22;51092;50.874;7.024;2023-04-24T06:14:42;10.10;90.50
30889;DHT22;51092;50.874;7.024;2023-04-24T06:15:44;10.10;90.40
30889;DHT22;51092;50.874;7.024;2023-04-24T06:16:46;10.10;90.40
30889;DHT22;51092;50.874;7.024;2023-04-24T06:17:48;10.10;90.60
30889;DHT22;51092;50.874;7.024;2023-04-24T06:18:51;10.10;90.60
30889;DHT22;51092;50.874;7.024;2023-04-24T06:19:53;10.10;90.50
30889;DHT22;51092;50.874;7.024;2023-04-24T06:20:55;10.10;90.50
30889;DHT22;51092;50.874;7.024;2023-04-24T06:21:57;10.10;90.40
30889;DHT22;51092;50.874;7.024;2023-04-24T06:22:59;10.10;90.40
30889;DHT22;51092;50.874;7.024;2023-04-24T06:24:01;10.10;90.50
30889;DHT22;51092;50.874;7.024;2023-04-24T06:25:05;10.20;90.30
30889;DHT22;51092;50.874;7.024;2023-04-24T06:26:08;10.10;90.40
30889;DHT22;51092;50.874;7.024;2023-04-24T06:27:09;10.10;90.60
30889;DHT22;51092;50.874;7.024;2023-04-24T06:28:12;10.10;91.10
30889;DHT22;51092;50.874;7.024;2023-04-24T06:29:13;10.10;91.30
30889;DHT22;51092;50.874;7.024;2023-04-24T06:30:16;10.00;91.30
30889;DHT22;51092;50.874;7.024;2023-04-24T06:31:17;10.00;91.00
30889;DHT22;51092;50.874;7.024;2023-04-24T06:32:21;10.00;91.20
30889;DHT22;51092;50.874;7.024;2023-04-24T06:33:22;10.10;91.40
30889;DHT22;51092;50.874;7.024;2023-04-24T06:34:30;10.10;91.60
30889;DHT22;51092;50.874;7.024;2023-04-24T06:35:36;10.00;91.90